sensor_id;sensor_type;location;lat;lon;timestamp;P1;durP1;ratioP1;P2;durP2;ratioP2
20814;SDS011;10568;48.176;16.316;2023-01-16T00:00:01;0.50;;;0.50;;
20814;SDS011;10568;48.176;16.316;2023-01-16T00:02:27;0.50;;;0.40;;
20814;SDS011;10568;48.176;16.316;2023-01-16T00:04:52;0.50;;;0.47;;
20814;SDS011;10568;48.176;16.316;2023-01-16T00:07:18;0.50;;;0.50;;
20814;SDS011;10568;48.176;16.316;2023-01-16T00:09:44;0.60;;;0.60;;
20814;SDS011;10568;48.176;16.316;2023-01-16T00:12:09;0.70;;;0.60;;
20814;SDS011;10568;48.176;16.316;2023-01-16T00:14:35;0.80;;;0.60;;
20814;SDS011;10568;48.176;16.316;2023-01-16T00:17:00;0.70;;;0.60;;
20814;SDS011;10568;48.176;16.316;2023-01-16T00:19:26;0.60;;;0.60;;
20814;SDS011;10568;48.176;16.316;2023-01-16T00:21:52;0.40;;;0.40;;
20814;SDS011;10568;48.176;16.316;2023-01-16T00:24:17;0.83;;;0.60;;
20814;SDS011;10568;48.176;16.316;2023-01-16T00:26:43;0.80;;;0.67;;
20814;SDS011;10568;48.176;16.316;2023-01-16T00:29:09;0.50;;;0.50;;
20814;SDS011;10568;48.176;16.316;2023-01-16T00:31:34;0.77;;;0.70;;
20814;SDS011;10568;48.176;16.316;2023-01-16T00:34:00;1.53;;;0.70;;
20814;SDS011;10568;48.176;16.316;2023-01-16T00:36:26;0.80;;;0.70;;
20814;SDS011;10568;48.176;16.316;2023-01-16T00:38:51;1.03;;;0.60;;
20814;SDS011;10568;48.176;16.316;2023-01-16T00:41:17;0.60;;;0.60;;
20814;SDS011;10568;48.176;16.316;2023-01-16T00:43:43;0.50;;;0.40;;
20814;SDS011;10568;48.176;16.316;2023-01-16T00:46:08;0.97;;;0.80;;
20814;SDS011;10568;48.176;16.316;2023-01-16T00:48:34;0.80;;;0.43;;
20814;SDS011;10568;48.176;16.316;2023-01-16T00:50:59;0.67;;;0.67;;
20814;SDS011;10568;48.176;16.316;2023-01-16T00:53:25;0.60;;;0.60;;
20814;SDS011;10568;48.176;16.316;2023-01-16T00:55:51;0.60;;;0.60;;
20814;SDS011;10568;48.176;16.316;2023-01-16T00:58:17;0.40;;;0.40;;
20814;SDS011;10568;48.176;16.316;2023-01-16T01:00:43;0.37;;;0.37;;
20814;SDS011;10568;48.176;16.316;2023-01-16T01:03:08;0.40;;;0.40;;
20814;SDS011;10568;48.176;16.316;2023-01-16T01:05:35;0.50;;;0.40;;
20814;SDS011;10568;48.176;16.316;2023-01-16T01:08:02;0.60;;;0.43;;
20814;SDS011;10568;48.176;16.316;2023-01-16T01:10:27;0.50;;;0.50;;
20814;SDS011;10568;48.176;16.316;2023-01-16T01:12:53;0.50;;;0.50;;
20814;SDS011;10568;48.176;16.316;2023-01-16T01:15:20;0.40;;;0.40;;
20814;SDS011;10568;48.176;16.316;2023-01-16T01:17:46;0.67;;;0.50;;
20814;SDS011;10568;48.176;16.316;2023-01-16T01:20:12;0.40;;;0.40;;
20814;SDS011;10568;48.176;16.316;2023-01-16T01:22:38;0.33;;;0.33;;
20814;SDS011;10568;48.176;16.316;2023-01-16T01:25:03;0.43;;;0.43;;
20814;SDS011;10568;48.176;16.316;2023-01-16T01:27:29;0.77;;;0.57;;
20814;SDS011;10568;48.176;16.316;2023-01-16T01:29:55;0.70;;;0.50;;
20814;SDS011;10568;48.176;16.316;2023-01-16T01:32:21;0.50;;;0.50;;
20814;SDS011;10568;48.176;16.316;2023-01-16T01:34:46;0.87;;;0.70;;
20814;SDS011;10568;48.176;16.316;2023-01-16T01:37:12;0.90;;;0.70;;
20814;SDS011;10568;48.176;16.316;2023-01-16T01:39:38;1.53;;;0.77;;
20814;SDS011;10568;48.176;16.316;2023-01-16T01:42:03;0.47;;;0.47;;
20814;SDS011;10568;48.176;16.316;2023-01-16T01:44:49;1.23;;;0.50;;
20814;SDS011;10568;48.176;16.316;2023-01-16T01:47:26;0.70;;;0.70;;
20814;SDS011;10568;48.176;16.316;2023-01-16T01:49:59;0.70;;;0.70;;
20814;SDS011;10568;48.176;16.316;2023-01-16T01:52:29;0.80;;;0.60;;
20814;SDS011;10568;48.176;16.316;2023-01-16T01:54:59;0.50;;;0.47;;
20814;SDS011;10568;48.176;16.316;2023-01-16T01:57:30;0.83;;;0.60;;
20814;SDS011;10568;48.176;16.316;2023-01-16T02:02:48;0.30;;;0.30;;
20814;SDS011;10568;48.176;16.316;2023-01-16T02:05:25;0.50;;;0.47;;
20814;SDS011;10568;48.176;16.316;2023-01-16T02:07:54;0.60;;;0.50;;
20814;SDS011;10568;48.176;16.316;2023-01-16T02:10:36;0.40;;;0.40;;
20814;SDS011;10568;48.176;16.316;2023-01-16T02:13:05;0.40;;;0.40;;
20814;SDS011;10568;48.176;16.316;2023-01-16T02:15:31;0.87;;;0.50;;
20814;SDS011;10568;48.176;16.316;2023-01-16T02:17:58;0.83;;;0.63;;
20814;SDS011;10568;48.176;16.316;2023-01-16T02:29:22;0.40;;;0.40;;
20814;SDS011;10568;48.176;16.316;2023-01-16T02:32:03;0.60;;;0.60;;
20814;SDS011;10568;48.176;16.316;2023-01-16T02:37:51;1.57;;;0.50;;
20814;SDS011;10568;48.176;16.316;2023-01-16T02:48:36;0.43;;;0.37;;
20814;SDS011;10568;48.176;16.316;2023-01-16T02:54:31;0.50;;;0.40;;
20814;SDS011;10568;48.176;16.316;2023-01-16T02:56:45;0.30;;;0.30;;
20814;SDS011;10568;48.176;16.316;2023-01-16T02:59:16;0.40;;;0.40;;
20814;SDS011;10568;48.176;16.316;2023-01-16T03:01:44;0.50;;;0.50;;
20814;SDS011;10568;48.176;16.316;2023-01-16T03:07:27;0.47;;;0.47;;
20814;SDS011;10568;48.176;16.316;2023-01-16T03:27:00;0.40;;;0.40;;
20814;SDS011;10568;48.176;16.316;2023-01-16T03:29:41;0.60;;;0.60;;
20814;SDS011;10568;48.176;16.316;2023-01-16T03:37:18;0.90;;;0.50;;
20814;SDS011;10568;48.176;16.316;2023-01-16T03:39:53;1.50;;;0.43;;
20814;SDS011;10568;48.176;16.316;2023-01-16T03:42:30;0.40;;;0.40;;
20814;SDS011;10568;48.176;16.316;2023-01-16T03:45:03;0.30;;;0.30;;
20814;SDS011;10568;48.176;16.316;2023-01-16T03:47:34;0.47;;;0.47;;
20814;SDS011;10568;48.176;16.316;2023-01-16T03:50:07;0.40;;;0.40;;
20814;SDS011;10568;48.176;16.316;2023-01-16T03:52:36;0.53;;;0.53;;
20814;SDS011;10568;48.176;16.316;2023-01-16T03:58:21;0.77;;;0.50;;
20814;SDS011;10568;48.176;16.316;2023-01-16T04:03:36;0.50;;;0.40;;
20814;SDS011;10568;48.176;16.316;2023-01-16T04:06:08;0.43;;;0.43;;
20814;SDS011;10568;48.176;16.316;2023-01-16T04:08:42;0.53;;;0.50;;
20814;SDS011;10568;48.176;16.316;2023-01-16T04:11:11;0.50;;;0.50;;
20814;SDS011;10568;48.176;16.316;2023-01-16T04:13:39;0.47;;;0.47;;
20814;SDS011;10568;48.176;16.316;2023-01-16T04:16:09;0.40;;;0.40;;
20814;SDS011;10568;48.176;16.316;2023-01-16T04:18:39;1.03;;;0.50;;
20814;SDS011;10568;48.176;16.316;2023-01-16T04:21:05;0.60;;;0.50;;
20814;SDS011;10568;48.176;16.316;2023-01-16T04:23:32;0.70;;;0.50;;
20814;SDS011;10568;48.176;16.316;2023-01-16T04:25:58;0.60;;;0.60;;
20814;SDS011;10568;48.176;16.316;2023-01-16T04:28:24;0.70;;;0.63;;
20814;SDS011;10568;48.176;16.316;2023-01-16T04:30:50;1.60;;;0.63;;
20814;SDS011;10568;48.176;16.316;2023-01-16T04:33:15;0.80;;;0.80;;
20814;SDS011;10568;48.176;16.316;2023-01-16T04:35:41;0.70;;;0.67;;
20814;SDS011;10568;48.176;16.316;2023-01-16T04:38:07;0.57;;;0.57;;
20814;SDS011;10568;48.176;16.316;2023-01-16T04:40:32;0.73;;;0.70;;
20814;SDS011;10568;48.176;16.316;2023-01-16T04:42:58;0.70;;;0.70;;
20814;SDS011;10568;48.176;16.316;2023-01-16T04:45:24;1.40;;;0.60;;
20814;SDS011;10568;48.176;16.316;2023-01-16T04:47:50;0.73;;;0.60;;
20814;SDS011;10568;48.176;16.316;2023-01-16T04:50:17;0.73;;;0.73;;
20814;SDS011;10568;48.176;16.316;2023-01-16T04:52:43;1.17;;;0.93;;
20814;SDS011;10568;48.176;16.316;2023-01-16T04:55:10;1.77;;;0.70;;
20814;SDS011;10568;48.176;16.316;2023-01-16T04:57:36;1.47;;;0.70;;
20814;SDS011;10568;48.176;16.316;2023-01-16T05:00:05;0.53;;;0.53;;
20814;SDS011;10568;48.176;16.316;2023-01-16T05:02:34;1.37;;;0.50;;
20814;SDS011;10568;48.176;16.316;2023-01-16T05:04:59;1.17;;;0.63;;
20814;SDS011;10568;48.176;16.316;2023-01-16T05:07:25;1.07;;;0.60;;
20814;SDS011;10568;48.176;16.316;2023-01-16T05:09:52;0.73;;;0.50;;
20814;SDS011;10568;48.176;16.316;2023-01-16T05:12:18;0.80;;;0.57;;
20814;SDS011;10568;48.176;16.316;2023-01-16T05:14:44;0.70;;;0.63;;
20814;SDS011;10568;48.176;16.316;2023-01-16T05:17:10;0.70;;;0.60;;
20814;SDS011;10568;48.176;16.316;2023-01-16T05:19:35;1.00;;;0.60;;
20814;SDS011;10568;48.176;16.316;2023-01-16T05:22:01;1.60;;;0.70;;
20814;SDS011;10568;48.176;16.316;2023-01-16T05:24:26;0.90;;;0.60;;
20814;SDS011;10568;48.176;16.316;2023-01-16T05:26:52;1.30;;;0.60;;
20814;SDS011;10568;48.176;16.316;2023-01-16T05:29:18;1.27;;;0.60;;
20814;SDS011;10568;48.176;16.316;2023-01-16T05:31:43;0.53;;;0.47;;
20814;SDS011;10568;48.176;16.316;2023-01-16T05:34:09;1.23;;;0.53;;
20814;SDS011;10568;48.176;16.316;2023-01-16T05:36:35;0.60;;;0.60;;
20814;SDS011;10568;48.176;16.316;2023-01-16T05:39:01;0.53;;;0.53;;
20814;SDS011;10568;48.176;16.316;2023-01-16T05:41:27;0.70;;;0.70;;
20814;SDS011;10568;48.176;16.316;2023-01-16T05:43:52;0.57;;;0.57;;
20814;SDS011;10568;48.176;16.316;2023-01-16T05:46:18;1.23;;;0.70;;
20814;SDS011;10568;48.176;16.316;2023-01-16T05:48:44;0.63;;;0.63;;
20814;SDS011;10568;48.176;16.316;2023-01-16T05:51:10;0.70;;;0.60;;
20814;SDS011;10568;48.176;16.316;2023-01-16T05:53:36;1.67;;;0.60;;
20814;SDS011;10568;48.176;16.316;2023-01-16T05:56:09;0.70;;;0.50;;
20814;SDS011;10568;48.176;16.316;2023-01-16T05:58:41;0.60;;;0.50;;
20814;SDS011;10568;48.176;16.316;2023-01-16T06:01:07;0.50;;;0.50;;
20814;SDS011;10568;48.176;16.316;2023-01-16T06:03:33;1.13;;;0.50;;
20814;SDS011;10568;48.176;16.316;2023-01-16T06:05:58;0.50;;;0.50;;
20814;SDS011;10568;48.176;16.316;2023-01-16T06:08:25;1.13;;;0.60;;
20814;SDS011;10568;48.176;16.316;2023-01-16T06:10:51;0.83;;;0.60;;
20814;SDS011;10568;48.176;16.316;2023-01-16T06:13:16;1.70;;;0.80;;
20814;SDS011;10568;48.176;16.316;2023-01-16T06:15:42;1.23;;;1.00;;
20814;SDS011;10568;48.176;16.316;2023-01-16T06:18:08;3.00;;;1.10;;
20814;SDS011;10568;48.176;16.316;2023-01-16T06:20:34;1.00;;;0.73;;
20814;SDS011;10568;48.176;16.316;2023-01-16T06:22:59;1.30;;;0.80;;
20814;SDS011;10568;48.176;16.316;2023-01-16T06:25:25;1.60;;;0.90;;
20814;SDS011;10568;48.176;16.316;2023-01-16T06:27:51;0.97;;;0.80;;
20814;SDS011;10568;48.176;16.316;2023-01-16T06:30:17;1.13;;;0.60;;
20814;SDS011;10568;48.176;16.316;2023-01-16T06:32:43;1.13;;;0.73;;
20814;SDS011;10568;48.176;16.316;2023-01-16T06:35:13;0.40;;;0.40;;
20814;SDS011;10568;48.176;16.316;2023-01-16T06:37:39;0.83;;;0.60;;
20814;SDS011;10568;48.176;16.316;2023-01-16T06:40:05;0.60;;;0.60;;
20814;SDS011;10568;48.176;16.316;2023-01-16T06:42:31;0.80;;;0.50;;
20814;SDS011;10568;48.176;16.316;2023-01-16T06:44:57;1.07;;;0.70;;
20814;SDS011;10568;48.176;16.316;2023-01-16T06:47:23;0.97;;;0.50;;
20814;SDS011;10568;48.176;16.316;2023-01-16T06:49:48;0.50;;;0.47;;
20814;SDS011;10568;48.176;16.316;2023-01-16T06:52:14;0.40;;;0.40;;
20814;SDS011;10568;48.176;16.316;2023-01-16T06:54:40;0.63;;;0.40;;
20814;SDS011;10568;48.176;16.316;2023-01-16T06:57:05;0.50;;;0.50;;
20814;SDS011;10568;48.176;16.316;2023-01-16T06:59:31;1.90;;;0.77;;
20814;SDS011;10568;48.176;16.316;2023-01-16T07:01:57;0.90;;;0.60;;
20814;SDS011;10568;48.176;16.316;2023-01-16T07:04:22;0.60;;;0.60;;
20814;SDS011;10568;48.176;16.316;2023-01-16T07:06:48;0.60;;;0.60;;
20814;SDS011;10568;48.176;16.316;2023-01-16T07:09:15;0.63;;;0.57;;
20814;SDS011;10568;48.176;16.316;2023-01-16T07:11:41;2.13;;;0.80;;
20814;SDS011;10568;48.176;16.316;2023-01-16T07:14:07;0.60;;;0.60;;
20814;SDS011;10568;48.176;16.316;2023-01-16T07:16:52;0.80;;;0.80;;
20814;SDS011;10568;48.176;16.316;2023-01-16T07:19:36;1.23;;;0.70;;
20814;SDS011;10568;48.176;16.316;2023-01-16T07:22:20;1.30;;;0.67;;
20814;SDS011;10568;48.176;16.316;2023-01-16T07:25:10;1.20;;;0.60;;
20814;SDS011;10568;48.176;16.316;2023-01-16T07:27:39;1.50;;;0.87;;
20814;SDS011;10568;48.176;16.316;2023-01-16T07:30:06;0.70;;;0.70;;
20814;SDS011;10568;48.176;16.316;2023-01-16T07:32:33;1.13;;;0.80;;
20814;SDS011;10568;48.176;16.316;2023-01-16T07:34:58;2.63;;;1.00;;
20814;SDS011;10568;48.176;16.316;2023-01-16T07:37:24;1.23;;;0.70;;
20814;SDS011;10568;48.176;16.316;2023-01-16T07:39:50;1.03;;;0.73;;
20814;SDS011;10568;48.176;16.316;2023-01-16T07:42:15;1.57;;;1.20;;
20814;SDS011;10568;48.176;16.316;2023-01-16T07:44:41;2.57;;;0.83;;
20814;SDS011;10568;48.176;16.316;2023-01-16T07:47:07;1.77;;;1.10;;
20814;SDS011;10568;48.176;16.316;2023-01-16T07:49:32;1.17;;;0.70;;
20814;SDS011;10568;48.176;16.316;2023-01-16T07:51:58;1.70;;;0.77;;
20814;SDS011;10568;48.176;16.316;2023-01-16T07:54:24;0.90;;;0.70;;
20814;SDS011;10568;48.176;16.316;2023-01-16T07:56:49;1.20;;;0.70;;
20814;SDS011;10568;48.176;16.316;2023-01-16T07:59:15;1.03;;;0.73;;
20814;SDS011;10568;48.176;16.316;2023-01-16T08:01:41;1.83;;;0.77;;
20814;SDS011;10568;48.176;16.316;2023-01-16T08:04:07;0.77;;;0.70;;
20814;SDS011;10568;48.176;16.316;2023-01-16T08:06:33;1.87;;;1.03;;
20814;SDS011;10568;48.176;16.316;2023-01-16T08:08:59;3.80;;;1.03;;
20814;SDS011;10568;48.176;16.316;2023-01-16T08:11:25;3.27;;;0.90;;
20814;SDS011;10568;48.176;16.316;2023-01-16T08:14:04;2.63;;;0.70;;
20814;SDS011;10568;48.176;16.316;2023-01-16T08:16:32;1.57;;;1.00;;
20814;SDS011;10568;48.176;16.316;2023-01-16T08:18:58;2.20;;;1.10;;
20814;SDS011;10568;48.176;16.316;2023-01-16T08:21:24;1.30;;;0.90;;
20814;SDS011;10568;48.176;16.316;2023-01-16T08:23:51;1.30;;;0.77;;
20814;SDS011;10568;48.176;16.316;2023-01-16T08:26:17;3.03;;;0.90;;
20814;SDS011;10568;48.176;16.316;2023-01-16T08:28:42;1.10;;;0.87;;
20814;SDS011;10568;48.176;16.316;2023-01-16T08:31:09;0.90;;;0.87;;
20814;SDS011;10568;48.176;16.316;2023-01-16T08:33:38;1.63;;;1.03;;
20814;SDS011;10568;48.176;16.316;2023-01-16T08:36:05;2.07;;;0.80;;
20814;SDS011;10568;48.176;16.316;2023-01-16T08:38:32;1.57;;;1.00;;
20814;SDS011;10568;48.176;16.316;2023-01-16T08:40:58;1.83;;;0.90;;
20814;SDS011;10568;48.176;16.316;2023-01-16T08:43:24;1.73;;;1.10;;
20814;SDS011;10568;48.176;16.316;2023-01-16T08:46:21;0.83;;;0.60;;
20814;SDS011;10568;48.176;16.316;2023-01-16T08:49:17;0.60;;;0.60;;
20814;SDS011;10568;48.176;16.316;2023-01-16T08:52:02;1.30;;;0.97;;
20814;SDS011;10568;48.176;16.316;2023-01-16T08:54:27;2.10;;;0.80;;
20814;SDS011;10568;48.176;16.316;2023-01-16T08:56:53;2.30;;;1.07;;
20814;SDS011;10568;48.176;16.316;2023-01-16T08:59:19;0.87;;;0.70;;
20814;SDS011;10568;48.176;16.316;2023-01-16T09:01:44;0.90;;;0.70;;
20814;SDS011;10568;48.176;16.316;2023-01-16T09:04:10;1.10;;;0.80;;
20814;SDS011;10568;48.176;16.316;2023-01-16T09:06:36;2.17;;;0.90;;
20814;SDS011;10568;48.176;16.316;2023-01-16T09:09:06;1.40;;;0.83;;
20814;SDS011;10568;48.176;16.316;2023-01-16T09:11:32;1.97;;;0.90;;
20814;SDS011;10568;48.176;16.316;2023-01-16T09:14:17;1.10;;;1.00;;
20814;SDS011;10568;48.176;16.316;2023-01-16T09:16:42;2.53;;;0.80;;
20814;SDS011;10568;48.176;16.316;2023-01-16T09:19:08;1.33;;;1.00;;
20814;SDS011;10568;48.176;16.316;2023-01-16T09:21:34;1.57;;;0.97;;
20814;SDS011;10568;48.176;16.316;2023-01-16T09:24:00;0.90;;;0.67;;
20814;SDS011;10568;48.176;16.316;2023-01-16T09:26:27;1.63;;;0.80;;
20814;SDS011;10568;48.176;16.316;2023-01-16T09:28:53;1.67;;;0.90;;
20814;SDS011;10568;48.176;16.316;2023-01-16T09:31:18;1.03;;;0.90;;
20814;SDS011;10568;48.176;16.316;2023-01-16T09:33:44;1.40;;;1.00;;
20814;SDS011;10568;48.176;16.316;2023-01-16T09:36:12;2.80;;;0.90;;
20814;SDS011;10568;48.176;16.316;2023-01-16T09:38:37;1.00;;;0.80;;
20814;SDS011;10568;48.176;16.316;2023-01-16T09:41:03;1.67;;;0.87;;
20814;SDS011;10568;48.176;16.316;2023-01-16T09:43:34;2.30;;;0.90;;
20814;SDS011;10568;48.176;16.316;2023-01-16T09:49:18;1.43;;;0.80;;
20814;SDS011;10568;48.176;16.316;2023-01-16T09:51:37;2.10;;;1.00;;
20814;SDS011;10568;48.176;16.316;2023-01-16T09:54:12;0.87;;;0.83;;
20814;SDS011;10568;48.176;16.316;2023-01-16T09:57:02;2.47;;;0.83;;
20814;SDS011;10568;48.176;16.316;2023-01-16T09:59:53;0.60;;;0.60;;
20814;SDS011;10568;48.176;16.316;2023-01-16T10:04:53;0.77;;;0.60;;
20814;SDS011;10568;48.176;16.316;2023-01-16T10:18:58;0.60;;;0.50;;
20814;SDS011;10568;48.176;16.316;2023-01-16T10:32:40;0.97;;;0.63;;
20814;SDS011;10568;48.176;16.316;2023-01-16T10:35:19;1.20;;;0.50;;
20814;SDS011;10568;48.176;16.316;2023-01-16T10:37:54;1.10;;;0.40;;
20814;SDS011;10568;48.176;16.316;2023-01-16T10:40:27;1.90;;;0.70;;
20814;SDS011;10568;48.176;16.316;2023-01-16T10:43:01;0.47;;;0.40;;
20814;SDS011;10568;48.176;16.316;2023-01-16T10:46:01;0.53;;;0.40;;
20814;SDS011;10568;48.176;16.316;2023-01-16T10:48:56;0.50;;;0.40;;
20814;SDS011;10568;48.176;16.316;2023-01-16T10:51:40;2.83;;;0.60;;
20814;SDS011;10568;48.176;16.316;2023-01-16T10:54:05;0.70;;;0.47;;
20814;SDS011;10568;48.176;16.316;2023-01-16T10:56:31;0.43;;;0.40;;
20814;SDS011;10568;48.176;16.316;2023-01-16T10:59:03;4.13;;;0.60;;
20814;SDS011;10568;48.176;16.316;2023-01-16T11:01:29;0.67;;;0.50;;
20814;SDS011;10568;48.176;16.316;2023-01-16T11:03:56;0.60;;;0.57;;
20814;SDS011;10568;48.176;16.316;2023-01-16T11:06:25;1.47;;;0.60;;
20814;SDS011;10568;48.176;16.316;2023-01-16T11:08:53;0.80;;;0.50;;
20814;SDS011;10568;48.176;16.316;2023-01-16T11:11:24;0.77;;;0.60;;
20814;SDS011;10568;48.176;16.316;2023-01-16T11:14:30;1.23;;;0.50;;
20814;SDS011;10568;48.176;16.316;2023-01-16T11:20:34;1.03;;;0.53;;
20814;SDS011;10568;48.176;16.316;2023-01-16T11:25:29;0.60;;;0.40;;
20814;SDS011;10568;48.176;16.316;2023-01-16T11:27:58;0.43;;;0.43;;
20814;SDS011;10568;48.176;16.316;2023-01-16T11:30:31;0.60;;;0.60;;
20814;SDS011;10568;48.176;16.316;2023-01-16T11:33:05;1.33;;;0.60;;
20814;SDS011;10568;48.176;16.316;2023-01-16T11:35:56;0.90;;;0.90;;
20814;SDS011;10568;48.176;16.316;2023-01-16T11:38:24;0.97;;;0.67;;
20814;SDS011;10568;48.176;16.316;2023-01-16T11:40:52;1.43;;;0.73;;
20814;SDS011;10568;48.176;16.316;2023-01-16T11:43:25;0.67;;;0.67;;
20814;SDS011;10568;48.176;16.316;2023-01-16T11:49:05;0.70;;;0.60;;
20814;SDS011;10568;48.176;16.316;2023-01-16T11:51:41;0.80;;;0.80;;
20814;SDS011;10568;48.176;16.316;2023-01-16T11:54:14;1.20;;;1.10;;
20814;SDS011;10568;48.176;16.316;2023-01-16T11:56:54;1.27;;;1.00;;
20814;SDS011;10568;48.176;16.316;2023-01-16T12:08:02;1.20;;;1.10;;
20814;SDS011;10568;48.176;16.316;2023-01-16T12:11:22;1.87;;;1.17;;
20814;SDS011;10568;48.176;16.316;2023-01-16T12:14:05;1.37;;;0.93;;
20814;SDS011;10568;48.176;16.316;2023-01-16T12:21:59;4.77;;;1.20;;
20814;SDS011;10568;48.176;16.316;2023-01-16T12:24:43;1.53;;;1.43;;
20814;SDS011;10568;48.176;16.316;2023-01-16T12:27:41;1.67;;;1.57;;
20814;SDS011;10568;48.176;16.316;2023-01-16T12:38:34;2.20;;;1.63;;
20814;SDS011;10568;48.176;16.316;2023-01-16T12:41:19;1.73;;;1.50;;
20814;SDS011;10568;48.176;16.316;2023-01-16T12:47:00;1.53;;;1.27;;
20814;SDS011;10568;48.176;16.316;2023-01-16T12:52:33;1.77;;;1.23;;
20814;SDS011;10568;48.176;16.316;2023-01-16T12:55:21;1.80;;;1.23;;
20814;SDS011;10568;48.176;16.316;2023-01-16T12:58:18;1.97;;;1.00;;
20814;SDS011;10568;48.176;16.316;2023-01-16T13:00:47;0.97;;;0.87;;
20814;SDS011;10568;48.176;16.316;2023-01-16T13:03:26;1.83;;;0.80;;
20814;SDS011;10568;48.176;16.316;2023-01-16T13:06:03;1.00;;;0.90;;
20814;SDS011;10568;48.176;16.316;2023-01-16T13:08:43;1.63;;;0.90;;
20814;SDS011;10568;48.176;16.316;2023-01-16T13:11:24;1.07;;;0.80;;
20814;SDS011;10568;48.176;16.316;2023-01-16T13:14:18;1.00;;;0.90;;
20814;SDS011;10568;48.176;16.316;2023-01-16T13:19:21;2.90;;;0.70;;
20814;SDS011;10568;48.176;16.316;2023-01-16T13:24:24;1.03;;;0.77;;
20814;SDS011;10568;48.176;16.316;2023-01-16T13:27:07;0.40;;;0.40;;
20814;SDS011;10568;48.176;16.316;2023-01-16T13:29:42;1.23;;;0.73;;
20814;SDS011;10568;48.176;16.316;2023-01-16T13:32:18;0.70;;;0.70;;
20814;SDS011;10568;48.176;16.316;2023-01-16T13:35:11;0.83;;;0.73;;
20814;SDS011;10568;48.176;16.316;2023-01-16T13:43:34;0.60;;;0.60;;
20814;SDS011;10568;48.176;16.316;2023-01-16T13:46:33;0.80;;;0.80;;
20814;SDS011;10568;48.176;16.316;2023-01-16T13:49:00;1.20;;;0.70;;
20814;SDS011;10568;48.176;16.316;2023-01-16T13:51:27;1.23;;;0.80;;
20814;SDS011;10568;48.176;16.316;2023-01-16T13:53:55;1.63;;;0.63;;
20814;SDS011;10568;48.176;16.316;2023-01-16T13:56:24;0.57;;;0.57;;
20814;SDS011;10568;48.176;16.316;2023-01-16T13:58:55;0.50;;;0.50;;
20814;SDS011;10568;48.176;16.316;2023-01-16T14:01:53;1.00;;;0.70;;
20814;SDS011;10568;48.176;16.316;2023-01-16T14:06:49;0.53;;;0.53;;
20814;SDS011;10568;48.176;16.316;2023-01-16T14:14:48;2.27;;;1.07;;
20814;SDS011;10568;48.176;16.316;2023-01-16T14:23:03;1.23;;;0.83;;
20814;SDS011;10568;48.176;16.316;2023-01-16T14:25:54;0.87;;;0.83;;
20814;SDS011;10568;48.176;16.316;2023-01-16T14:28:21;1.37;;;0.97;;
20814;SDS011;10568;48.176;16.316;2023-01-16T14:30:47;1.77;;;0.90;;
20814;SDS011;10568;48.176;16.316;2023-01-16T14:33:16;0.87;;;0.77;;
20814;SDS011;10568;48.176;16.316;2023-01-16T14:35:45;2.10;;;1.00;;
20814;SDS011;10568;48.176;16.316;2023-01-16T14:38:15;1.33;;;1.23;;
20814;SDS011;10568;48.176;16.316;2023-01-16T14:40:47;1.07;;;0.80;;
20814;SDS011;10568;48.176;16.316;2023-01-16T14:44:28;0.93;;;0.60;;
20814;SDS011;10568;48.176;16.316;2023-01-16T14:46:50;1.17;;;0.87;;
20814;SDS011;10568;48.176;16.316;2023-01-16T14:55:24;1.10;;;0.87;;
20814;SDS011;10568;48.176;16.316;2023-01-16T14:57:54;1.80;;;1.10;;
20814;SDS011;10568;48.176;16.316;2023-01-16T15:00:21;1.47;;;1.00;;
20814;SDS011;10568;48.176;16.316;2023-01-16T15:05:50;1.17;;;0.90;;
20814;SDS011;10568;48.176;16.316;2023-01-16T15:08:27;3.97;;;1.40;;
20814;SDS011;10568;48.176;16.316;2023-01-16T15:10:57;1.70;;;0.90;;
20814;SDS011;10568;48.176;16.316;2023-01-16T15:13:49;2.17;;;1.27;;
20814;SDS011;10568;48.176;16.316;2023-01-16T15:16:45;1.30;;;1.03;;
20814;SDS011;10568;48.176;16.316;2023-01-16T15:19:30;1.73;;;1.40;;
20814;SDS011;10568;48.176;16.316;2023-01-16T15:22:18;2.37;;;1.57;;
20814;SDS011;10568;48.176;16.316;2023-01-16T15:25:03;1.40;;;0.90;;
20814;SDS011;10568;48.176;16.316;2023-01-16T15:27:42;2.63;;;1.40;;
20814;SDS011;10568;48.176;16.316;2023-01-16T15:30:15;2.23;;;1.40;;
20814;SDS011;10568;48.176;16.316;2023-01-16T15:32:52;1.70;;;1.20;;
20814;SDS011;10568;48.176;16.316;2023-01-16T15:35:18;2.00;;;1.37;;
20814;SDS011;10568;48.176;16.316;2023-01-16T15:37:51;4.30;;;1.80;;
20814;SDS011;10568;48.176;16.316;2023-01-16T15:42:52;2.27;;;1.70;;
20814;SDS011;10568;48.176;16.316;2023-01-16T15:45:55;2.50;;;1.50;;
20814;SDS011;10568;48.176;16.316;2023-01-16T15:48:47;4.00;;;1.50;;
20814;SDS011;10568;48.176;16.316;2023-01-16T15:51:17;2.23;;;1.40;;
20814;SDS011;10568;48.176;16.316;2023-01-16T15:53:46;2.13;;;1.40;;
20814;SDS011;10568;48.176;16.316;2023-01-16T15:56:20;1.63;;;1.40;;
20814;SDS011;10568;48.176;16.316;2023-01-16T15:58:58;4.83;;;1.93;;
20814;SDS011;10568;48.176;16.316;2023-01-16T16:01:30;1.70;;;1.57;;
20814;SDS011;10568;48.176;16.316;2023-01-16T16:03:58;2.77;;;1.57;;
20814;SDS011;10568;48.176;16.316;2023-01-16T16:06:26;2.07;;;1.40;;
20814;SDS011;10568;48.176;16.316;2023-01-16T16:08:57;2.90;;;1.40;;
20814;SDS011;10568;48.176;16.316;2023-01-16T16:11:25;2.03;;;1.40;;
20814;SDS011;10568;48.176;16.316;2023-01-16T16:14:30;3.03;;;1.67;;
20814;SDS011;10568;48.176;16.316;2023-01-16T16:23:15;3.13;;;1.63;;
20814;SDS011;10568;48.176;16.316;2023-01-16T16:25:46;1.70;;;1.60;;
20814;SDS011;10568;48.176;16.316;2023-01-16T16:28:25;2.37;;;1.60;;
20814;SDS011;10568;48.176;16.316;2023-01-16T16:30:54;2.20;;;1.73;;
20814;SDS011;10568;48.176;16.316;2023-01-16T16:33:21;3.97;;;1.77;;
20814;SDS011;10568;48.176;16.316;2023-01-16T16:35:48;2.13;;;1.40;;
20814;SDS011;10568;48.176;16.316;2023-01-16T16:38:19;2.70;;;1.87;;
20814;SDS011;10568;48.176;16.316;2023-01-16T16:40:57;2.03;;;1.53;;
20814;SDS011;10568;48.176;16.316;2023-01-16T16:43:47;2.10;;;1.30;;
20814;SDS011;10568;48.176;16.316;2023-01-16T16:49:25;2.20;;;1.60;;
20814;SDS011;10568;48.176;16.316;2023-01-16T16:51:47;3.40;;;1.37;;
20814;SDS011;10568;48.176;16.316;2023-01-16T16:54:13;1.63;;;1.37;;
20814;SDS011;10568;48.176;16.316;2023-01-16T16:59:16;2.20;;;1.40;;
20814;SDS011;10568;48.176;16.316;2023-01-16T17:01:46;2.20;;;1.30;;
20814;SDS011;10568;48.176;16.316;2023-01-16T17:04:14;1.83;;;1.57;;
20814;SDS011;10568;48.176;16.316;2023-01-16T17:06:43;2.73;;;1.60;;
20814;SDS011;10568;48.176;16.316;2023-01-16T17:09:13;2.63;;;1.77;;
20814;SDS011;10568;48.176;16.316;2023-01-16T17:11:42;4.13;;;1.70;;
20814;SDS011;10568;48.176;16.316;2023-01-16T17:14:08;2.60;;;1.87;;
20814;SDS011;10568;48.176;16.316;2023-01-16T17:16:34;2.90;;;1.30;;
20814;SDS011;10568;48.176;16.316;2023-01-16T17:19:05;2.67;;;1.83;;
20814;SDS011;10568;48.176;16.316;2023-01-16T17:21:46;2.50;;;1.63;;
20814;SDS011;10568;48.176;16.316;2023-01-16T17:24:14;2.33;;;1.70;;
20814;SDS011;10568;48.176;16.316;2023-01-16T17:26:41;1.60;;;1.50;;
20814;SDS011;10568;48.176;16.316;2023-01-16T17:29:07;2.00;;;1.73;;
20814;SDS011;10568;48.176;16.316;2023-01-16T17:31:34;2.47;;;1.90;;
20814;SDS011;10568;48.176;16.316;2023-01-16T17:34:04;3.03;;;1.80;;
20814;SDS011;10568;48.176;16.316;2023-01-16T17:36:30;3.13;;;2.10;;
20814;SDS011;10568;48.176;16.316;2023-01-16T17:38:57;2.53;;;1.90;;
20814;SDS011;10568;48.176;16.316;2023-01-16T17:41:24;2.00;;;1.60;;
20814;SDS011;10568;48.176;16.316;2023-01-16T17:43:53;2.20;;;1.70;;
20814;SDS011;10568;48.176;16.316;2023-01-16T17:46:38;2.00;;;1.80;;